sensor_id;sensor_type;location;lat;lon;timestamp;P1;durP1;ratioP1;P2;durP2;ratioP2
33954;SDS011;20233;50.804;7.126;2023-11-19T00:00:49;0.32;;;0.10;;
33954;SDS011;20233;50.804;7.126;2023-11-19T00:03:16;0.60;;;0.10;;
33954;SDS011;20233;50.804;7.126;2023-11-19T00:05:42;0.88;;;0.20;;
33954;SDS011;20233;50.804;7.126;2023-11-19T00:08:09;1.05;;;0.10;;
33954;SDS011;20233;50.804;7.126;2023-11-19T00:10:35;0.45;;;0.10;;
33954;SDS011;20233;50.804;7.126;2023-11-19T00:13:00;0.55;;;0.10;;
33954;SDS011;20233;50.804;7.126;2023-11-19T00:15:27;0.65;;;0.10;;
33954;SDS011;20233;50.804;7.126;2023-11-19T00:17:53;0.32;;;0.00;;
33954;SDS011;20233;50.804;7.126;2023-11-19T00:20:19;0.55;;;0.10;;
33954;SDS011;20233;50.804;7.126;2023-11-19T00:22:47;1.58;;;0.10;;
33954;SDS011;20233;50.804;7.126;2023-11-19T00:25:16;0.65;;;0.10;;
33954;SDS011;20233;50.804;7.126;2023-11-19T00:27:43;0.50;;;0.10;;
33954;SDS011;20233;50.804;7.126;2023-11-19T00:30:09;1.08;;;0.10;;
33954;SDS011;20233;50.804;7.126;2023-11-19T00:32:35;0.75;;;0.10;;
33954;SDS011;20233;50.804;7.126;2023-11-19T00:35:03;0.52;;;0.10;;
33954;SDS011;20233;50.804;7.126;2023-11-19T00:37:29;1.20;;;0.10;;
33954;SDS011;20233;50.804;7.126;2023-11-19T00:39:55;1.48;;;0.10;;
33954;SDS011;20233;50.804;7.126;2023-11-19T00:42:21;0.73;;;0.10;;
33954;SDS011;20233;50.804;7.126;2023-11-19T00:44:49;1.30;;;0.10;;
33954;SDS011;20233;50.804;7.126;2023-11-19T00:47:15;0.38;;;0.10;;
33954;SDS011;20233;50.804;7.126;2023-11-19T00:49:40;1.27;;;0.10;;
33954;SDS011;20233;50.804;7.126;2023-11-19T00:52:06;0.47;;;0.08;;
33954;SDS011;20233;50.804;7.126;2023-11-19T00:54:31;1.98;;;0.10;;
33954;SDS011;20233;50.804;7.126;2023-11-19T00:56:57;1.00;;;0.08;;
33954;SDS011;20233;50.804;7.126;2023-11-19T00:59:23;0.45;;;0.03;;
33954;SDS011;20233;50.804;7.126;2023-11-19T01:01:48;0.77;;;0.10;;
33954;SDS011;20233;50.804;7.126;2023-11-19T01:04:15;1.67;;;0.10;;
33954;SDS011;20233;50.804;7.126;2023-11-19T01:06:40;0.47;;;0.08;;
33954;SDS011;20233;50.804;7.126;2023-11-19T01:09:07;3.58;;;0.10;;
33954;SDS011;20233;50.804;7.126;2023-11-19T01:11:34;1.45;;;0.10;;
33954;SDS011;20233;50.804;7.126;2023-11-19T01:13:59;0.38;;;0.10;;
33954;SDS011;20233;50.804;7.126;2023-11-19T01:16:25;0.32;;;0.00;;
33954;SDS011;20233;50.804;7.126;2023-11-19T01:18:51;0.30;;;0.10;;
33954;SDS011;20233;50.804;7.126;2023-11-19T01:21:17;1.10;;;0.10;;
33954;SDS011;20233;50.804;7.126;2023-11-19T01:23:43;1.23;;;0.00;;
33954;SDS011;20233;50.804;7.126;2023-11-19T01:26:09;0.57;;;0.08;;
33954;SDS011;20233;50.804;7.126;2023-11-19T01:28:35;0.30;;;0.00;;
33954;SDS011;20233;50.804;7.126;2023-11-19T01:31:01;1.83;;;0.10;;
33954;SDS011;20233;50.804;7.126;2023-11-19T01:33:28;0.55;;;0.00;;
33954;SDS011;20233;50.804;7.126;2023-11-19T01:35:54;0.57;;;0.00;;
33954;SDS011;20233;50.804;7.126;2023-11-19T01:38:19;1.92;;;0.03;;
33954;SDS011;20233;50.804;7.126;2023-11-19T01:40:45;0.57;;;0.00;;
33954;SDS011;20233;50.804;7.126;2023-11-19T01:43:11;0.30;;;0.00;;
33954;SDS011;20233;50.804;7.126;2023-11-19T01:45:38;0.40;;;0.00;;
33954;SDS011;20233;50.804;7.126;2023-11-19T01:48:05;0.73;;;0.10;;
33954;SDS011;20233;50.804;7.126;2023-11-19T01:50:31;3.53;;;1.45;;
33954;SDS011;20233;50.804;7.126;2023-11-19T01:52:58;1.38;;;0.10;;
33954;SDS011;20233;50.804;7.126;2023-11-19T01:55:24;1.52;;;0.08;;
33954;SDS011;20233;50.804;7.126;2023-11-19T01:57:52;0.55;;;0.10;;
33954;SDS011;20233;50.804;7.126;2023-11-19T02:00:19;0.63;;;0.00;;
33954;SDS011;20233;50.804;7.126;2023-11-19T02:02:45;1.50;;;0.10;;
33954;SDS011;20233;50.804;7.126;2023-11-19T02:05:13;0.70;;;0.10;;
33954;SDS011;20233;50.804;7.126;2023-11-19T02:07:39;0.77;;;0.10;;
33954;SDS011;20233;50.804;7.126;2023-11-19T02:10:05;0.40;;;0.05;;
33954;SDS011;20233;50.804;7.126;2023-11-19T02:12:37;2.53;;;0.10;;
33954;SDS011;20233;50.804;7.126;2023-11-19T02:15:08;0.20;;;0.00;;
33954;SDS011;20233;50.804;7.126;2023-11-19T02:17:34;0.30;;;0.00;;
33954;SDS011;20233;50.804;7.126;2023-11-19T02:20:02;0.30;;;0.00;;
33954;SDS011;20233;50.804;7.126;2023-11-19T02:22:31;1.67;;;0.10;;
33954;SDS011;20233;50.804;7.126;2023-11-19T02:24:58;0.55;;;0.10;;
33954;SDS011;20233;50.804;7.126;2023-11-19T02:27:31;0.93;;;0.00;;
33954;SDS011;20233;50.804;7.126;2023-11-19T02:30:13;1.23;;;0.00;;
33954;SDS011;20233;50.804;7.126;2023-11-19T02:32:40;0.65;;;0.00;;
33954;SDS011;20233;50.804;7.126;2023-11-19T02:35:07;0.45;;;0.10;;
33954;SDS011;20233;50.804;7.126;2023-11-19T02:37:36;0.40;;;0.10;;
33954;SDS011;20233;50.804;7.126;2023-11-19T02:40:04;0.43;;;0.10;;
33954;SDS011;20233;50.804;7.126;2023-11-19T02:42:30;0.32;;;0.00;;
33954;SDS011;20233;50.804;7.126;2023-11-19T02:44:56;3.45;;;0.10;;
33954;SDS011;20233;50.804;7.126;2023-11-19T02:47:22;4.18;;;0.10;;
33954;SDS011;20233;50.804;7.126;2023-11-19T02:49:49;0.40;;;0.00;;
33954;SDS011;20233;50.804;7.126;2023-11-19T02:52:15;0.75;;;0.00;;
33954;SDS011;20233;50.804;7.126;2023-11-19T02:54:41;1.75;;;0.40;;
33954;SDS011;20233;50.804;7.126;2023-11-19T02:57:08;0.88;;;0.10;;
33954;SDS011;20233;50.804;7.126;2023-11-19T02:59:38;0.65;;;0.10;;
33954;SDS011;20233;50.804;7.126;2023-11-19T03:02:06;1.70;;;0.10;;
33954;SDS011;20233;50.804;7.126;2023-11-19T03:04:36;0.28;;;0.08;;
33954;SDS011;20233;50.804;7.126;2023-11-19T03:07:01;0.40;;;0.00;;
33954;SDS011;20233;50.804;7.126;2023-11-19T03:09:27;0.85;;;0.15;;
33954;SDS011;20233;50.804;7.126;2023-11-19T03:11:54;0.43;;;0.00;;
33954;SDS011;20233;50.804;7.126;2023-11-19T03:14:20;0.35;;;0.10;;
33954;SDS011;20233;50.804;7.126;2023-11-19T03:16:45;0.73;;;0.00;;
33954;SDS011;20233;50.804;7.126;2023-11-19T03:19:13;1.02;;;0.05;;
33954;SDS011;20233;50.804;7.126;2023-11-19T03:21:40;0.90;;;0.00;;
33954;SDS011;20233;50.804;7.126;2023-11-19T03:24:05;0.45;;;0.00;;
33954;SDS011;20233;50.804;7.126;2023-11-19T03:26:31;0.88;;;0.00;;
33954;SDS011;20233;50.804;7.126;2023-11-19T03:28:58;0.35;;;0.00;;
33954;SDS011;20233;50.804;7.126;2023-11-19T03:31:24;0.30;;;0.10;;
33954;SDS011;20233;50.804;7.126;2023-11-19T03:33:50;0.95;;;0.20;;
33954;SDS011;20233;50.804;7.126;2023-11-19T03:36:16;1.65;;;0.10;;
33954;SDS011;20233;50.804;7.126;2023-11-19T03:38:42;0.65;;;0.10;;
33954;SDS011;20233;50.804;7.126;2023-11-19T03:41:14;0.50;;;0.00;;
33954;SDS011;20233;50.804;7.126;2023-11-19T03:43:41;0.70;;;0.10;;
33954;SDS011;20233;50.804;7.126;2023-11-19T03:46:16;0.30;;;0.00;;
33954;SDS011;20233;50.804;7.126;2023-11-19T03:48:42;2.30;;;0.10;;
33954;SDS011;20233;50.804;7.126;2023-11-19T03:51:08;3.88;;;0.10;;
33954;SDS011;20233;50.804;7.126;2023-11-19T03:53:34;1.00;;;0.30;;
33954;SDS011;20233;50.804;7.126;2023-11-19T03:56:00;1.35;;;0.10;;
33954;SDS011;20233;50.804;7.126;2023-11-19T03:58:26;1.15;;;0.10;;
33954;SDS011;20233;50.804;7.126;2023-11-19T04:00:51;2.17;;;0.10;;
33954;SDS011;20233;50.804;7.126;2023-11-19T04:03:17;0.57;;;0.10;;
33954;SDS011;20233;50.804;7.126;2023-11-19T04:05:44;1.38;;;0.10;;
33954;SDS011;20233;50.804;7.126;2023-11-19T04:08:10;1.67;;;0.10;;
33954;SDS011;20233;50.804;7.126;2023-11-19T04:10:35;1.90;;;0.10;;
33954;SDS011;20233;50.804;7.126;2023-11-19T04:13:01;1.95;;;0.17;;
33954;SDS011;20233;50.804;7.126;2023-11-19T04:15:26;1.15;;;0.15;;
33954;SDS011;20233;50.804;7.126;2023-11-19T04:17:52;3.40;;;0.57;;
33954;SDS011;20233;50.804;7.126;2023-11-19T04:20:17;2.97;;;0.30;;
33954;SDS011;20233;50.804;7.126;2023-11-19T04:22:43;4.13;;;0.52;;
33954;SDS011;20233;50.804;7.126;2023-11-19T04:25:08;5.28;;;0.52;;
33954;SDS011;20233;50.804;7.126;2023-11-19T04:27:34;2.25;;;0.30;;
33954;SDS011;20233;50.804;7.126;2023-11-19T04:30:00;6.10;;;0.35;;
33954;SDS011;20233;50.804;7.126;2023-11-19T04:32:26;9.05;;;0.50;;
33954;SDS011;20233;50.804;7.126;2023-11-19T04:34:52;8.07;;;0.45;;
33954;SDS011;20233;50.804;7.126;2023-11-19T04:37:17;9.15;;;0.70;;
33954;SDS011;20233;50.804;7.126;2023-11-19T04:39:46;7.47;;;0.40;;
33954;SDS011;20233;50.804;7.126;2023-11-19T04:42:11;7.88;;;1.75;;
33954;SDS011;20233;50.804;7.126;2023-11-19T04:44:37;7.93;;;0.60;;
33954;SDS011;20233;50.804;7.126;2023-11-19T04:47:03;8.38;;;0.50;;
33954;SDS011;20233;50.804;7.126;2023-11-19T04:49:28;6.60;;;0.32;;
33954;SDS011;20233;50.804;7.126;2023-11-19T04:51:55;7.18;;;1.00;;
33954;SDS011;20233;50.804;7.126;2023-11-19T04:54:21;8.48;;;1.15;;
33954;SDS011;20233;50.804;7.126;2023-11-19T04:56:46;7.07;;;0.35;;
33954;SDS011;20233;50.804;7.126;2023-11-19T04:59:12;6.93;;;0.70;;
33954;SDS011;20233;50.804;7.126;2023-11-19T05:01:38;2.90;;;0.40;;
33954;SDS011;20233;50.804;7.126;2023-11-19T05:04:03;5.78;;;0.40;;
33954;SDS011;20233;50.804;7.126;2023-11-19T05:06:30;6.93;;;0.32;;
33954;SDS011;20233;50.804;7.126;2023-11-19T05:08:56;8.13;;;0.55;;
33954;SDS011;20233;50.804;7.126;2023-11-19T05:11:23;7.28;;;0.70;;
33954;SDS011;20233;50.804;7.126;2023-11-19T05:13:49;9.93;;;0.90;;
33954;SDS011;20233;50.804;7.126;2023-11-19T05:16:15;10.05;;;0.82;;
33954;SDS011;20233;50.804;7.126;2023-11-19T05:18:42;7.60;;;0.60;;
33954;SDS011;20233;50.804;7.126;2023-11-19T05:21:08;6.90;;;1.00;;
33954;SDS011;20233;50.804;7.126;2023-11-19T05:23:33;8.95;;;1.05;;
33954;SDS011;20233;50.804;7.126;2023-11-19T05:26:00;9.23;;;0.60;;
33954;SDS011;20233;50.804;7.126;2023-11-19T05:28:26;10.73;;;1.67;;
33954;SDS011;20233;50.804;7.126;2023-11-19T05:30:51;12.23;;;0.60;;
33954;SDS011;20233;50.804;7.126;2023-11-19T05:33:17;7.65;;;0.80;;
33954;SDS011;20233;50.804;7.126;2023-11-19T05:35:42;7.47;;;0.68;;
33954;SDS011;20233;50.804;7.126;2023-11-19T05:38:08;11.07;;;0.73;;
33954;SDS011;20233;50.804;7.126;2023-11-19T05:40:34;13.52;;;2.38;;
33954;SDS011;20233;50.804;7.126;2023-11-19T05:43:00;11.93;;;1.45;;
33954;SDS011;20233;50.804;7.126;2023-11-19T05:45:26;7.68;;;1.10;;
33954;SDS011;20233;50.804;7.126;2023-11-19T05:47:52;10.93;;;1.10;;
33954;SDS011;20233;50.804;7.126;2023-11-19T05:50:17;7.78;;;0.77;;
33954;SDS011;20233;50.804;7.126;2023-11-19T05:52:43;10.73;;;1.85;;
33954;SDS011;20233;50.804;7.126;2023-11-19T05:55:09;13.18;;;0.65;;
33954;SDS011;20233;50.804;7.126;2023-11-19T05:57:38;14.02;;;1.90;;
33954;SDS011;20233;50.804;7.126;2023-11-19T06:00:05;14.45;;;1.23;;
33954;SDS011;20233;50.804;7.126;2023-11-19T06:02:34;11.13;;;1.33;;
33954;SDS011;20233;50.804;7.126;2023-11-19T06:05:02;12.27;;;0.80;;
33954;SDS011;20233;50.804;7.126;2023-11-19T06:07:30;12.00;;;1.33;;
33954;SDS011;20233;50.804;7.126;2023-11-19T06:09:56;13.75;;;1.05;;
33954;SDS011;20233;50.804;7.126;2023-11-19T06:12:21;8.93;;;1.20;;
33954;SDS011;20233;50.804;7.126;2023-11-19T06:14:47;6.20;;;1.02;;
33954;SDS011;20233;50.804;7.126;2023-11-19T06:17:12;9.40;;;1.42;;
33954;SDS011;20233;50.804;7.126;2023-11-19T06:19:38;18.90;;;1.38;;
33954;SDS011;20233;50.804;7.126;2023-11-19T06:22:04;11.00;;;1.15;;
33954;SDS011;20233;50.804;7.126;2023-11-19T06:24:29;11.40;;;1.38;;
33954;SDS011;20233;50.804;7.126;2023-11-19T06:26:55;9.77;;;0.73;;
33954;SDS011;20233;50.804;7.126;2023-11-19T06:29:20;14.25;;;1.02;;
33954;SDS011;20233;50.804;7.126;2023-11-19T06:31:46;14.25;;;1.55;;
33954;SDS011;20233;50.804;7.126;2023-11-19T06:34:13;16.35;;;1.00;;
33954;SDS011;20233;50.804;7.126;2023-11-19T06:36:40;13.75;;;0.90;;
33954;SDS011;20233;50.804;7.126;2023-11-19T06:39:05;16.77;;;2.05;;
33954;SDS011;20233;50.804;7.126;2023-11-19T06:41:31;14.05;;;1.80;;
33954;SDS011;20233;50.804;7.126;2023-11-19T06:43:57;15.63;;;1.20;;
33954;SDS011;20233;50.804;7.126;2023-11-19T06:46:22;12.82;;;2.17;;
33954;SDS011;20233;50.804;7.126;2023-11-19T06:48:48;11.48;;;1.20;;
33954;SDS011;20233;50.804;7.126;2023-11-19T06:51:13;10.07;;;1.60;;
33954;SDS011;20233;50.804;7.126;2023-11-19T06:53:39;18.20;;;1.27;;
33954;SDS011;20233;50.804;7.126;2023-11-19T06:56:06;17.50;;;1.67;;
33954;SDS011;20233;50.804;7.126;2023-11-19T06:58:42;11.30;;;1.30;;
33954;SDS011;20233;50.804;7.126;2023-11-19T07:01:08;14.23;;;1.20;;
33954;SDS011;20233;50.804;7.126;2023-11-19T07:03:34;15.85;;;1.95;;
33954;SDS011;20233;50.804;7.126;2023-11-19T07:06:00;12.93;;;1.48;;
33954;SDS011;20233;50.804;7.126;2023-11-19T07:08:25;13.73;;;1.23;;
33954;SDS011;20233;50.804;7.126;2023-11-19T07:10:51;17.50;;;1.45;;
33954;SDS011;20233;50.804;7.126;2023-11-19T07:13:17;11.05;;;0.80;;
33954;SDS011;20233;50.804;7.126;2023-11-19T07:15:44;9.90;;;1.20;;
33954;SDS011;20233;50.804;7.126;2023-11-19T07:18:09;14.15;;;2.15;;
33954;SDS011;20233;50.804;7.126;2023-11-19T07:20:36;18.73;;;2.28;;
33954;SDS011;20233;50.804;7.126;2023-11-19T07:23:03;10.40;;;1.23;;
33954;SDS011;20233;50.804;7.126;2023-11-19T07:25:30;13.25;;;2.03;;
33954;SDS011;20233;50.804;7.126;2023-11-19T07:27:56;13.98;;;2.00;;
33954;SDS011;20233;50.804;7.126;2023-11-19T07:30:25;11.55;;;1.00;;
33954;SDS011;20233;50.804;7.126;2023-11-19T07:32:52;16.83;;;1.50;;
33954;SDS011;20233;50.804;7.126;2023-11-19T07:35:19;7.30;;;0.63;;
33954;SDS011;20233;50.804;7.126;2023-11-19T07:37:46;17.88;;;1.30;;
33954;SDS011;20233;50.804;7.126;2023-11-19T07:40:13;17.25;;;1.75;;
33954;SDS011;20233;50.804;7.126;2023-11-19T07:42:39;16.52;;;1.63;;
33954;SDS011;20233;50.804;7.126;2023-11-19T07:45:06;16.83;;;1.38;;
33954;SDS011;20233;50.804;7.126;2023-11-19T07:47:34;13.82;;;1.27;;
33954;SDS011;20233;50.804;7.126;2023-11-19T07:50:00;10.80;;;1.00;;
33954;SDS011;20233;50.804;7.126;2023-11-19T07:52:26;12.93;;;1.45;;
33954;SDS011;20233;50.804;7.126;2023-11-19T07:54:54;18.15;;;2.30;;
33954;SDS011;20233;50.804;7.126;2023-11-19T07:57:22;16.98;;;2.88;;
33954;SDS011;20233;50.804;7.126;2023-11-19T07:59:52;21.67;;;3.88;;
33954;SDS011;20233;50.804;7.126;2023-11-19T08:02:19;15.52;;;2.13;;
33954;SDS011;20233;50.804;7.126;2023-11-19T08:04:45;13.88;;;2.13;;
33954;SDS011;20233;50.804;7.126;2023-11-19T08:07:15;18.95;;;1.70;;
33954;SDS011;20233;50.804;7.126;2023-11-19T08:09:42;15.00;;;1.38;;
33954;SDS011;20233;50.804;7.126;2023-11-19T08:12:09;14.95;;;1.98;;
33954;SDS011;20233;50.804;7.126;2023-11-19T08:14:35;10.55;;;1.13;;
33954;SDS011;20233;50.804;7.126;2023-11-19T08:17:03;20.25;;;1.75;;
33954;SDS011;20233;50.804;7.126;2023-11-19T08:19:29;14.20;;;1.48;;
33954;SDS011;20233;50.804;7.126;2023-11-19T08:21:57;13.77;;;1.38;;
33954;SDS011;20233;50.804;7.126;2023-11-19T08:24:23;12.35;;;1.50;;
33954;SDS011;20233;50.804;7.126;2023-11-19T08:26:50;14.73;;;1.40;;
33954;SDS011;20233;50.804;7.126;2023-11-19T08:29:17;10.68;;;1.52;;
33954;SDS011;20233;50.804;7.126;2023-11-19T08:31:44;13.02;;;1.60;;
33954;SDS011;20233;50.804;7.126;2023-11-19T08:34:11;18.92;;;1.35;;
33954;SDS011;20233;50.804;7.126;2023-11-19T08:36:40;14.40;;;1.35;;
33954;SDS011;20233;50.804;7.126;2023-11-19T08:39:07;16.05;;;1.40;;
33954;SDS011;20233;50.804;7.126;2023-11-19T08:41:34;22.70;;;2.25;;
33954;SDS011;20233;50.804;7.126;2023-11-19T08:44:00;15.65;;;1.60;;
33954;SDS011;20233;50.804;7.126;2023-11-19T08:46:27;15.05;;;1.90;;
33954;SDS011;20233;50.804;7.126;2023-11-19T08:48:53;19.33;;;1.88;;
33954;SDS011;20233;50.804;7.126;2023-11-19T08:51:22;14.38;;;1.70;;
33954;SDS011;20233;50.804;7.126;2023-11-19T08:53:50;15.60;;;2.10;;
33954;SDS011;20233;50.804;7.126;2023-11-19T08:56:16;15.82;;;1.45;;
33954;SDS011;20233;50.804;7.126;2023-11-19T08:58:42;19.35;;;2.30;;
33954;SDS011;20233;50.804;7.126;2023-11-19T09:01:09;9.10;;;1.02;;
33954;SDS011;20233;50.804;7.126;2023-11-19T09:03:35;19.38;;;1.67;;
33954;SDS011;20233;50.804;7.126;2023-11-19T09:06:02;13.95;;;1.60;;
33954;SDS011;20233;50.804;7.126;2023-11-19T09:08:28;14.60;;;1.55;;
33954;SDS011;20233;50.804;7.126;2023-11-19T09:10:56;20.58;;;1.92;;
33954;SDS011;20233;50.804;7.126;2023-11-19T09:13:23;15.10;;;1.15;;
33954;SDS011;20233;50.804;7.126;2023-11-19T09:15:50;17.50;;;1.63;;
33954;SDS011;20233;50.804;7.126;2023-11-19T09:18:17;16.88;;;1.95;;
33954;SDS011;20233;50.804;7.126;2023-11-19T09:20:44;19.60;;;2.03;;
33954;SDS011;20233;50.804;7.126;2023-11-19T09:23:10;17.45;;;1.58;;
33954;SDS011;20233;50.804;7.126;2023-11-19T09:25:37;13.30;;;1.25;;
33954;SDS011;20233;50.804;7.126;2023-11-19T09:28:04;18.17;;;2.13;;
33954;SDS011;20233;50.804;7.126;2023-11-19T09:30:30;17.15;;;1.38;;
33954;SDS011;20233;50.804;7.126;2023-11-19T09:32:59;13.52;;;1.77;;
33954;SDS011;20233;50.804;7.126;2023-11-19T09:35:25;23.77;;;2.03;;
33954;SDS011;20233;50.804;7.126;2023-11-19T09:37:52;22.48;;;3.17;;
33954;SDS011;20233;50.804;7.126;2023-11-19T09:40:18;17.35;;;1.65;;
33954;SDS011;20233;50.804;7.126;2023-11-19T09:42:46;11.95;;;1.75;;
33954;SDS011;20233;50.804;7.126;2023-11-19T09:45:15;18.98;;;2.10;;
33954;SDS011;20233;50.804;7.126;2023-11-19T09:47:46;16.95;;;1.70;;
33954;SDS011;20233;50.804;7.126;2023-11-19T09:50:16;19.77;;;2.25;;
33954;SDS011;20233;50.804;7.126;2023-11-19T09:52:44;17.02;;;1.85;;
33954;SDS011;20233;50.804;7.126;2023-11-19T09:55:11;16.58;;;2.15;;
33954;SDS011;20233;50.804;7.126;2023-11-19T09:57:40;16.13;;;2.25;;
33954;SDS011;20233;50.804;7.126;2023-11-19T10:00:09;17.95;;;1.88;;
33954;SDS011;20233;50.804;7.126;2023-11-19T10:02:37;15.68;;;2.05;;
33954;SDS011;20233;50.804;7.126;2023-11-19T10:05:08;20.25;;;2.85;;
33954;SDS011;20233;50.804;7.126;2023-11-19T10:07:35;17.98;;;1.40;;
33954;SDS011;20233;50.804;7.126;2023-11-19T10:10:04;14.23;;;2.38;;
33954;SDS011;20233;50.804;7.126;2023-11-19T10:12:30;15.82;;;2.03;;
33954;SDS011;20233;50.804;7.126;2023-11-19T10:14:59;19.55;;;2.83;;
33954;SDS011;20233;50.804;7.126;2023-11-19T10:17:29;17.02;;;1.55;;
33954;SDS011;20233;50.804;7.126;2023-11-19T10:20:05;18.27;;;1.75;;
33954;SDS011;20233;50.804;7.126;2023-11-19T10:22:36;20.50;;;2.72;;
33954;SDS011;20233;50.804;7.126;2023-11-19T10:25:02;16.15;;;1.92;;
33954;SDS011;20233;50.804;7.126;2023-11-19T10:27:28;14.80;;;2.00;;
33954;SDS011;20233;50.804;7.126;2023-11-19T10:29:59;14.80;;;1.67;;
33954;SDS011;20233;50.804;7.126;2023-11-19T10:32:26;18.08;;;2.03;;
33954;SDS011;20233;50.804;7.126;2023-11-19T10:35:04;15.00;;;1.67;;
33954;SDS011;20233;50.804;7.126;2023-11-19T10:37:34;15.00;;;1.42;;
33954;SDS011;20233;50.804;7.126;2023-11-19T10:40:02;15.73;;;1.70;;
33954;SDS011;20233;50.804;7.126;2023-11-19T10:42:35;18.00;;;1.58;;
33954;SDS011;20233;50.804;7.126;2023-11-19T10:45:02;15.68;;;1.48;;
33954;SDS011;20233;50.804;7.126;2023-11-19T10:47:28;14.82;;;1.75;;
33954;SDS011;20233;50.804;7.126;2023-11-19T10:49:55;14.80;;;1.58;;
33954;SDS011;20233;50.804;7.126;2023-11-19T10:52:24;18.75;;;2.15;;
33954;SDS011;20233;50.804;7.126;2023-11-19T10:54:53;17.58;;;1.63;;
33954;SDS011;20233;50.804;7.126;2023-11-19T10:57:25;13.63;;;2.58;;
33954;SDS011;20233;50.804;7.126;2023-11-19T11:00:00;21.42;;;1.88;;
33954;SDS011;20233;50.804;7.126;2023-11-19T11:02:28;13.10;;;1.50;;
33954;SDS011;20233;50.804;7.126;2023-11-19T11:07:25;10.23;;;1.35;;
33954;SDS011;20233;50.804;7.126;2023-11-19T11:09:54;15.05;;;1.48;;
33954;SDS011;20233;50.804;7.126;2023-11-19T11:12:21;11.45;;;1.30;;
33954;SDS011;20233;50.804;7.126;2023-11-19T11:14:50;12.77;;;1.35;;
33954;SDS011;20233;50.804;7.126;2023-11-19T11:17:19;17.27;;;1.15;;
33954;SDS011;20233;50.804;7.126;2023-11-19T11:22:21;12.38;;;1.05;;
33954;SDS011;20233;50.804;7.126;2023-11-19T11:38:23;15.45;;;1.95;;
33954;SDS011;20233;50.804;7.126;2023-11-19T11:43:47;8.50;;;1.40;;
33954;SDS011;20233;50.804;7.126;2023-11-19T11:52:15;11.88;;;0.95;;
33954;SDS011;20233;50.804;7.126;2023-11-19T12:02:11;12.63;;;1.38;;
33954;SDS011;20233;50.804;7.126;2023-11-19T12:04:41;13.35;;;1.20;;
33954;SDS011;20233;50.804;7.126;2023-11-19T12:07:10;7.50;;;0.75;;
33954;SDS011;20233;50.804;7.126;2023-11-19T12:09:41;13.57;;;1.23;;
33954;SDS011;20233;50.804;7.126;2023-11-19T12:12:23;11.80;;;1.52;;
33954;SDS011;20233;50.804;7.126;2023-11-19T12:20:16;13.10;;;0.90;;
33954;SDS011;20233;50.804;7.126;2023-11-19T12:22:45;8.48;;;0.80;;
33954;SDS011;20233;50.804;7.126;2023-11-19T12:25:14;10.95;;;0.90;;
33954;SDS011;20233;50.804;7.126;2023-11-19T12:27:46;10.63;;;1.25;;
33954;SDS011;20233;50.804;7.126;2023-11-19T12:30:22;12.10;;;1.30;;
33954;SDS011;20233;50.804;7.126;2023-11-19T12:32:52;10.30;;;0.82;;
33954;SDS011;20233;50.804;7.126;2023-11-19T12:35:20;14.20;;;1.08;;
33954;SDS011;20233;50.804;7.126;2023-11-19T12:37:48;12.25;;;1.63;;
33954;SDS011;20233;50.804;7.126;2023-11-19T12:40:18;11.20;;;1.38;;
33954;SDS011;20233;50.804;7.126;2023-11-19T12:42:47;11.52;;;1.23;;
33954;SDS011;20233;50.804;7.126;2023-11-19T12:45:15;12.10;;;1.40;;
33954;SDS011;20233;50.804;7.126;2023-11-19T12:47:44;11.02;;;1.50;;
33954;SDS011;20233;50.804;7.126;2023-11-19T12:50:15;9.20;;;1.40;;
33954;SDS011;20233;50.804;7.126;2023-11-19T12:55:28;12.13;;;1.17;;
33954;SDS011;20233;50.804;7.126;2023-11-19T12:57:55;10.68;;;1.35;;
33954;SDS011;20233;50.804;7.126;2023-11-19T13:00:24;10.18;;;1.40;;
33954;SDS011;20233;50.804;7.126;2023-11-19T13:02:54;11.57;;;0.93;;
33954;SDS011;20233;50.804;7.126;2023-11-19T13:05:30;13.70;;;1.10;;
33954;SDS011;20233;50.804;7.126;2023-11-19T13:07:58;11.80;;;0.70;;
33954;SDS011;20233;50.804;7.126;2023-11-19T13:10:26;11.55;;;0.73;;
33954;SDS011;20233;50.804;7.126;2023-11-19T13:13:01;10.02;;;2.20;;
33954;SDS011;20233;50.804;7.126;2023-11-19T13:15:35;7.45;;;0.40;;
33954;SDS011;20233;50.804;7.126;2023-11-19T13:18:02;9.40;;;0.80;;
33954;SDS011;20233;50.804;7.126;2023-11-19T13:20:28;6.03;;;0.40;;
33954;SDS011;20233;50.804;7.126;2023-11-19T13:22:57;9.88;;;0.70;;
33954;SDS011;20233;50.804;7.126;2023-11-19T13:25:28;8.75;;;0.85;;
33954;SDS011;20233;50.804;7.126;2023-11-19T13:27:57;7.75;;;0.85;;
33954;SDS011;20233;50.804;7.126;2023-11-19T13:30:25;10.23;;;0.80;;
33954;SDS011;20233;50.804;7.126;2023-11-19T13:32:54;7.22;;;0.73;;
33954;SDS011;20233;50.804;7.126;2023-11-19T13:35:22;8.63;;;0.70;;
33954;SDS011;20233;50.804;7.126;2023-11-19T13:37:53;13.48;;;1.17;;
33954;SDS011;20233;50.804;7.126;2023-11-19T13:40:21;13.10;;;1.42;;
33954;SDS011;20233;50.804;7.126;2023-11-19T13:42:50;11.38;;;1.38;;
33954;SDS011;20233;50.804;7.126;2023-11-19T13:45:16;10.85;;;1.10;;
33954;SDS011;20233;50.804;7.126;2023-11-19T13:47:46;12.43;;;1.50;;
33954;SDS011;20233;50.804;7.126;2023-11-19T13:50:14;14.43;;;3.05;;
33954;SDS011;20233;50.804;7.126;2023-11-19T13:52:43;13.15;;;1.17;;
33954;SDS011;20233;50.804;7.126;2023-11-19T13:55:13;12.65;;;1.80;;
33954;SDS011;20233;50.804;7.126;2023-11-19T13:57:41;11.18;;;1.50;;
33954;SDS011;20233;50.804;7.126;2023-11-19T14:00:11;12.18;;;1.27;;
33954;SDS011;20233;50.804;7.126;2023-11-19T14:02:48;14.10;;;1.05;;
33954;SDS011;20233;50.804;7.126;2023-11-19T14:05:17;14.80;;;1.77;;
33954;SDS011;20233;50.804;7.126;2023-11-19T14:07:45;12.98;;;1.10;;
33954;SDS011;20233;50.804;7.126;2023-11-19T14:10:17;10.25;;;1.25;;
33954;SDS011;20233;50.804;7.126;2023-11-19T14:12:44;14.15;;;0.90;;
33954;SDS011;20233;50.804;7.126;2023-11-19T14:15:18;13.23;;;1.65;;
33954;SDS011;20233;50.804;7.126;2023-11-19T14:17:45;14.57;;;1.48;;
33954;SDS011;20233;50.804;7.126;2023-11-19T14:20:12;11.60;;;1.30;;
33954;SDS011;20233;50.804;7.126;2023-11-19T14:22:41;12.70;;;0.98;;
33954;SDS011;20233;50.804;7.126;2023-11-19T14:25:09;10.95;;;1.65;;
33954;SDS011;20233;50.804;7.126;2023-11-19T14:27:37;15.05;;;1.58;;
33954;SDS011;20233;50.804;7.126;2023-11-19T14:30:08;11.90;;;0.85;;
33954;SDS011;20233;50.804;7.126;2023-11-19T14:32:40;11.48;;;1.10;;
33954;SDS011;20233;50.804;7.126;2023-11-19T14:35:09;10.43;;;1.35;;
33954;SDS011;20233;50.804;7.126;2023-11-19T14:37:36;10.35;;;0.80;;
33954;SDS011;20233;50.804;7.126;2023-11-19T14:40:03;14.13;;;1.30;;
33954;SDS011;20233;50.804;7.126;2023-11-19T14:42:31;15.52;;;1.48;;
33954;SDS011;20233;50.804;7.126;2023-11-19T14:44:58;13.02;;;1.75;;
33954;SDS011;20233;50.804;7.126;2023-11-19T14:47:33;12.75;;;0.98;;
33954;SDS011;20233;50.804;7.126;2023-11-19T14:49:59;14.27;;;1.17;;
33954;SDS011;20233;50.804;7.126;2023-11-19T14:52:25;9.02;;;0.60;;
33954;SDS011;20233;50.804;7.126;2023-11-19T14:54:51;9.48;;;0.85;;
33954;SDS011;20233;50.804;7.126;2023-11-19T14:57:19;6.90;;;0.38;;
33954;SDS011;20233;50.804;7.126;2023-11-19T14:59:46;5.60;;;0.60;;
33954;SDS011;20233;50.804;7.126;2023-11-19T15:02:12;8.48;;;0.50;;
33954;SDS011;20233;50.804;7.126;2023-11-19T15:04:39;9.15;;;0.60;;
33954;SDS011;20233;50.804;7.126;2023-11-19T15:07:09;8.37;;;1.10;;
33954;SDS011;20233;50.804;7.126;2023-11-19T15:09:36;9.25;;;0.90;;
33954;SDS011;20233;50.804;7.126;2023-11-19T15:12:03;8.88;;;0.68;;
33954;SDS011;20233;50.804;7.126;2023-11-19T15:14:30;6.22;;;0.73;;
33954;SDS011;20233;50.804;7.126;2023-11-19T15:19:27;8.63;;;0.70;;
33954;SDS011;20233;50.804;7.126;2023-11-19T15:21:56;8.00;;;0.82;;
33954;SDS011;20233;50.804;7.126;2023-11-19T15:24:29;7.93;;;0.90;;
33954;SDS011;20233;50.804;7.126;2023-11-19T15:26:58;11.30;;;0.80;;